createdAt,value
2022-10-19T00:02:05.801Z,3.93
2022-10-19T00:04:32.428Z,4.17
2022-10-19T00:06:59.177Z,4.20
2022-10-19T00:09:25.916Z,4.53
2022-10-19T00:11:52.608Z,4.67
2022-10-19T00:14:23.086Z,3.93
2022-10-19T00:16:51.939Z,4.40
2022-10-19T00:19:22.053Z,3.30
2022-10-19T00:24:15.594Z,3.13
2022-10-19T00:26:42.382Z,3.33
2022-10-19T00:29:11.151Z,4.20
2022-10-19T00:31:37.815Z,6.07
2022-10-19T00:34:04.510Z,5.17
2022-10-19T00:36:39.684Z,3.67
2022-10-19T00:39:10.641Z,5.07
2022-10-19T00:41:38.228Z,4.70
2022-10-19T00:44:25.017Z,3.63
2022-10-19T00:46:53.294Z,4.30
2022-10-19T00:49:36.055Z,5.03
2022-10-19T00:52:16.520Z,4.10
2022-10-19T00:54:44.667Z,4.20
2022-10-19T00:57:12.293Z,4.67
2022-10-19T00:59:42.066Z,4.63
2022-10-19T01:02:08.823Z,4.07
2022-10-19T01:04:44.690Z,4.57
2022-10-19T01:07:11.924Z,3.73
2022-10-19T01:09:38.595Z,4.07
2022-10-19T01:12:08.393Z,4.60
2022-10-19T01:15:00.004Z,4.07
2022-10-19T01:17:48.040Z,3.67
2022-10-19T01:20:46.645Z,3.63
2022-10-19T01:23:40.212Z,4.63
2022-10-19T01:26:48.239Z,4.37
2022-10-19T01:29:26.943Z,3.57
2022-10-19T01:32:11.921Z,3.73
2022-10-19T01:34:51.862Z,4.97
2022-10-19T01:37:33.843Z,4.10
2022-10-19T01:40:10.665Z,3.40
2022-10-19T01:42:37.166Z,3.53
2022-10-19T01:45:26.333Z,3.33
2022-10-19T01:47:59.785Z,3.67
2022-10-19T01:50:41.160Z,3.40
2022-10-19T01:53:11.044Z,3.77
2022-10-19T01:55:41.264Z,2.80
2022-10-19T01:58:14.133Z,3.10
2022-10-19T02:00:45.307Z,3.20
2022-10-19T02:03:13.764Z,3.77
2022-10-19T02:05:41.875Z,4.23
2022-10-19T02:08:13.988Z,4.30
2022-10-19T02:10:43.757Z,3.57
2022-10-19T02:13:12.321Z,4.43
2022-10-19T02:15:43.875Z,3.93
2022-10-19T02:18:14.439Z,4.60
2022-10-19T02:20:41.068Z,4.17
2022-10-19T02:23:08.416Z,3.87
2022-10-19T02:25:35.309Z,3.93
2022-10-19T02:28:05.447Z,4.03
2022-10-19T02:30:32.399Z,4.47
2022-10-19T02:32:59.060Z,3.97
2022-10-19T02:35:25.993Z,4.53
2022-10-19T02:37:52.559Z,3.40
2022-10-19T02:40:19.400Z,3.80
2022-10-19T02:42:55.530Z,3.60
2022-10-19T02:45:27.081Z,2.87
2022-10-19T02:47:59.405Z,3.87
2022-10-19T02:50:27.453Z,3.10
2022-10-19T02:52:54.113Z,3.70
2022-10-19T02:55:20.770Z,3.43
2022-10-19T02:57:47.384Z,4.00
2022-10-19T03:00:14.055Z,2.80
2022-10-19T03:02:40.704Z,2.97
2022-10-19T03:05:07.852Z,2.80
2022-10-19T03:07:34.867Z,2.70
2022-10-19T03:10:01.809Z,3.30
2022-10-19T03:12:28.430Z,2.20
2022-10-19T03:14:55.049Z,2.53
2022-10-19T03:17:21.607Z,2.23
2022-10-19T03:19:48.199Z,2.33
2022-10-19T03:22:17.706Z,2.00
2022-10-19T03:24:44.265Z,2.87
2022-10-19T03:27:10.930Z,2.03
2022-10-19T03:29:37.509Z,2.13
2022-10-19T03:32:04.507Z,2.03
2022-10-19T03:34:31.227Z,1.67
2022-10-19T03:36:59.339Z,2.00
2022-10-19T03:39:26.582Z,1.70
2022-10-19T03:41:53.279Z,2.00
2022-10-19T03:44:20.123Z,1.80
2022-10-19T03:46:46.830Z,2.03
2022-10-19T03:49:15.065Z,2.30
2022-10-19T03:51:41.819Z,1.63
2022-10-19T03:54:13.655Z,1.73
2022-10-19T03:56:40.992Z,2.70
2022-10-19T03:59:07.619Z,1.90
2022-10-19T04:01:40.360Z,1.60
2022-10-19T04:04:11.294Z,2.43
2022-10-19T04:06:40.485Z,2.60
2022-10-19T04:09:09.298Z,2.47
2022-10-19T04:11:36.512Z,2.97
2022-10-19T04:14:03.370Z,1.97
2022-10-19T04:16:31.455Z,2.13
2022-10-19T04:18:58.879Z,2.50
2022-10-19T04:21:31.349Z,2.57
2022-10-19T04:24:01.708Z,1.97
2022-10-19T04:26:28.704Z,2.10
2022-10-19T04:28:58.780Z,2.33
2022-10-19T04:31:26.211Z,3.20
2022-10-19T04:33:52.836Z,2.57
2022-10-19T04:36:19.763Z,2.53
2022-10-19T04:38:46.390Z,2.23
2022-10-19T04:41:15.496Z,2.63
2022-10-19T04:43:42.136Z,3.93
2022-10-19T04:46:14.761Z,2.83
2022-10-19T04:48:42.281Z,3.10
2022-10-19T04:51:10.036Z,3.37
2022-10-19T04:53:38.961Z,4.27
2022-10-19T04:56:08.541Z,4.67
2022-10-19T04:58:35.804Z,3.97
2022-10-19T05:01:09.734Z,5.50
2022-10-19T05:03:36.627Z,5.80
2022-10-19T05:06:04.124Z,5.53
2022-10-19T05:08:31.163Z,5.73
2022-10-19T05:11:09.496Z,6.37
2022-10-19T05:13:36.484Z,5.77
2022-10-19T05:16:05.173Z,7.50
2022-10-19T05:18:32.199Z,6.43
2022-10-19T05:21:06.733Z,5.87
2022-10-19T05:23:33.862Z,6.63
2022-10-19T05:26:18.203Z,6.10
2022-10-19T05:28:49.700Z,6.57
2022-10-19T05:31:19.613Z,6.07
2022-10-19T05:33:46.700Z,8.60
2022-10-19T05:36:15.195Z,7.80
2022-10-19T05:38:43.392Z,7.93
2022-10-19T05:41:10.629Z,6.27
2022-10-19T05:43:37.449Z,7.43
2022-10-19T05:46:09.430Z,5.07
2022-10-19T05:48:36.768Z,5.30
2022-10-19T05:51:05.437Z,6.27
2022-10-19T05:53:32.993Z,4.90
2022-10-19T05:55:59.733Z,5.17
2022-10-19T05:58:26.929Z,4.47
2022-10-19T06:00:58.726Z,5.30
2022-10-19T06:03:26.555Z,5.30
2022-10-19T06:05:54.118Z,5.50
2022-10-19T06:08:22.712Z,4.87
2022-10-19T06:10:50.998Z,4.30
2022-10-19T06:13:19.071Z,4.03
2022-10-19T06:15:49.889Z,4.37
2022-10-19T06:18:16.516Z,4.63
2022-10-19T06:20:43.298Z,4.97
2022-10-19T06:23:09.992Z,4.77
2022-10-19T06:25:37.924Z,4.90
2022-10-19T06:28:04.708Z,5.07
2022-10-19T06:30:31.422Z,4.80
2022-10-19T06:32:59.690Z,4.07
2022-10-19T06:35:26.816Z,4.53
2022-10-19T06:37:56.470Z,4.63
2022-10-19T06:40:23.608Z,4.27
2022-10-19T06:42:50.694Z,5.67
2022-10-19T06:45:17.549Z,4.13
2022-10-19T06:47:44.228Z,5.07
2022-10-19T06:50:12.172Z,4.30
2022-10-19T06:52:40.851Z,4.93
2022-10-19T06:55:08.147Z,4.53
2022-10-19T06:57:35.452Z,4.63
2022-10-19T07:00:02.532Z,4.20
2022-10-19T07:02:29.285Z,4.23
2022-10-19T07:04:55.925Z,4.60
2022-10-19T07:07:22.523Z,4.93
2022-10-19T07:09:49.204Z,5.07
2022-10-19T07:12:15.938Z,4.47
2022-10-19T07:14:42.607Z,5.30
2022-10-19T07:17:12.056Z,4.70
2022-10-19T07:19:38.852Z,4.73
2022-10-19T07:22:05.500Z,4.37
2022-10-19T07:24:32.161Z,5.53
2022-10-19T07:26:58.928Z,5.43
2022-10-19T07:29:25.536Z,4.53
2022-10-19T07:31:52.268Z,4.40
2022-10-19T07:34:18.869Z,4.50
2022-10-19T07:36:48.285Z,4.63
2022-10-19T07:39:17.171Z,4.67
2022-10-19T07:41:44.714Z,5.07
2022-10-19T07:44:14.844Z,4.57
2022-10-19T07:46:42.815Z,4.07
2022-10-19T07:49:13.910Z,4.10
2022-10-19T07:51:40.558Z,3.83
2022-10-19T07:54:07.261Z,4.00
2022-10-19T07:56:35.558Z,4.83
2022-10-19T07:59:02.938Z,4.57
2022-10-19T08:01:32.208Z,5.60
2022-10-19T08:06:46.646Z,4.23
2022-10-19T08:09:27.801Z,4.17
2022-10-19T08:11:59.912Z,4.13
2022-10-19T08:14:26.589Z,4.30
2022-10-19T08:16:53.258Z,3.63
2022-10-19T08:19:19.933Z,4.43
2022-10-19T08:21:47.512Z,3.97
2022-10-19T08:24:31.368Z,4.22
2022-10-19T08:26:57.950Z,3.67
2022-10-19T08:29:26.570Z,3.87
2022-10-19T08:31:55.693Z,3.80
2022-10-19T08:34:22.267Z,3.70
2022-10-19T08:36:48.996Z,4.60
2022-10-19T08:39:17.866Z,4.50
2022-10-19T08:42:05.754Z,4.07
2022-10-19T08:45:00.421Z,3.93
2022-10-19T08:47:53.291Z,3.60
2022-10-19T08:50:24.498Z,3.80
2022-10-19T08:53:16.807Z,3.30
2022-10-19T08:56:05.693Z,3.40
2022-10-19T08:58:57.039Z,3.20
2022-10-19T09:01:54.510Z,3.03
2022-10-19T09:04:29.235Z,3.17
2022-10-19T09:07:45.120Z,3.40
2022-10-19T09:10:14.866Z,2.73
2022-10-19T09:12:58.715Z,4.20
2022-10-19T09:15:38.641Z,3.43
2022-10-19T09:18:11.020Z,2.83
2022-10-19T09:20:41.500Z,2.93
2022-10-19T09:23:34.425Z,2.77
2022-10-19T09:26:01.124Z,3.30
2022-10-19T09:28:39.664Z,3.70
2022-10-19T09:31:14.971Z,3.60
2022-10-19T09:33:43.336Z,2.00
2022-10-19T09:36:18.200Z,1.97
2022-10-19T09:38:50.358Z,2.00
2022-10-19T09:41:19.433Z,2.37
2022-10-19T09:43:53.635Z,1.87
2022-10-19T09:46:52.315Z,1.90
2022-10-19T09:49:38.070Z,1.15
2022-10-19T09:52:04.825Z,3.65
2022-10-19T09:54:40.777Z,2.55
2022-10-19T09:57:07.545Z,2.70
2022-10-19T09:59:36.975Z,2.33
2022-10-19T10:02:06.273Z,2.35
2022-10-19T10:04:36.541Z,1.53
2022-10-19T10:07:04.265Z,2.13
2022-10-19T10:09:31.294Z,1.57
2022-10-19T10:12:00.333Z,2.47
2022-10-19T10:14:34.027Z,2.47
2022-10-19T10:17:07.228Z,2.07
2022-10-19T10:19:36.205Z,2.10
2022-10-19T10:22:04.333Z,2.20
2022-10-19T10:24:32.862Z,2.10
2022-10-19T10:27:05.754Z,2.10
2022-10-19T10:29:37.863Z,1.40
2022-10-19T10:32:20.038Z,2.10
2022-10-19T10:35:01.540Z,2.83
2022-10-19T10:37:39.433Z,1.70
2022-10-19T10:40:08.344Z,1.77
2022-10-19T10:42:41.481Z,1.80
2022-10-19T10:45:31.292Z,1.87
2022-10-19T10:48:00.056Z,1.20
2022-10-19T10:50:34.151Z,1.30
2022-10-19T10:53:03.511Z,0.90
2022-10-19T10:55:31.692Z,0.90
2022-10-19T10:58:15.712Z,1.10
2022-10-19T11:00:44.178Z,1.23
2022-10-19T11:03:25.378Z,0.90
2022-10-19T11:05:57.469Z,0.80
2022-10-19T11:08:59.953Z,1.13
2022-10-19T11:11:40.062Z,0.90
2022-10-19T11:14:25.325Z,0.90
2022-10-19T11:16:54.932Z,1.07
2022-10-19T11:19:36.877Z,1.10
2022-10-19T11:22:34.616Z,1.20
2022-10-19T11:25:25.266Z,1.17
2022-10-19T11:28:12.776Z,0.90
2022-10-19T11:31:14.560Z,1.50
2022-10-19T11:33:55.496Z,0.70
2022-10-19T11:36:54.507Z,0.87
2022-10-19T11:39:42.970Z,0.80
2022-10-19T11:42:18.919Z,1.00
2022-10-19T11:44:51.586Z,0.70
2022-10-19T11:47:29.848Z,0.70
2022-10-19T11:50:15.645Z,0.67
2022-10-19T11:52:50.312Z,0.60
2022-10-19T11:55:27.374Z,1.07
2022-10-19T11:58:08.627Z,0.70
2022-10-19T12:00:48.833Z,0.67
2022-10-19T12:03:48.023Z,0.63
2022-10-19T12:06:28.631Z,0.70
2022-10-19T12:09:20.777Z,0.80
2022-10-19T12:12:16.512Z,0.40
2022-10-19T12:14:47.115Z,0.70
2022-10-19T12:17:33.206Z,0.60
2022-10-19T12:20:05.335Z,0.70
2022-10-19T12:22:34.859Z,0.40
2022-10-19T12:25:02.119Z,0.70
2022-10-19T12:27:37.148Z,0.40
2022-10-19T12:30:24.515Z,0.57
2022-10-19T12:33:07.152Z,0.40
2022-10-19T12:35:48.045Z,0.47
2022-10-19T12:38:23.456Z,0.50
2022-10-19T12:41:00.566Z,0.70
2022-10-19T12:43:41.514Z,0.40
2022-10-19T12:46:23.208Z,1.13
2022-10-19T12:49:27.210Z,0.40
2022-10-19T12:51:58.946Z,0.67
2022-10-19T12:54:36.975Z,0.80
2022-10-19T12:57:22.830Z,0.60
2022-10-19T13:00:00.049Z,0.43
2022-10-19T13:04:58.495Z,0.40
2022-10-19T13:07:27.011Z,1.60
2022-10-19T13:10:02.176Z,0.70
2022-10-19T13:12:40.966Z,0.67
2022-10-19T13:15:36.540Z,0.30
2022-10-19T13:18:16.984Z,0.37
2022-10-19T13:20:54.032Z,0.57
2022-10-19T13:23:26.640Z,0.30
2022-10-19T13:26:31.299Z,0.40
2022-10-19T13:28:57.956Z,0.47
2022-10-19T13:31:27.671Z,0.33
2022-10-19T13:33:55.331Z,0.40
2022-10-19T13:36:23.008Z,0.40
2022-10-19T13:38:58.760Z,0.40
2022-10-19T13:41:44.543Z,0.60
2022-10-19T13:44:14.500Z,0.80
2022-10-19T13:46:53.465Z,0.70
2022-10-19T13:49:35.210Z,0.80
2022-10-19T13:52:26.801Z,0.90
2022-10-19T13:55:05.555Z,0.20
2022-10-19T13:57:55.353Z,0.40
2022-10-19T14:00:56.540Z,0.40
2022-10-19T14:03:38.084Z,0.50
2022-10-19T14:06:15.792Z,0.50
2022-10-19T14:08:48.339Z,0.30
2022-10-19T14:11:17.263Z,0.40
2022-10-19T14:13:44.209Z,0.43
2022-10-19T14:16:21.891Z,1.43
2022-10-19T14:18:56.526Z,0.40
2022-10-19T14:21:35.653Z,0.43
2022-10-19T14:24:02.745Z,0.30
2022-10-19T14:26:31.236Z,0.30
2022-10-19T14:28:59.764Z,0.43
2022-10-19T14:31:40.050Z,0.47
2022-10-19T14:34:09.506Z,0.40
2022-10-19T14:36:48.632Z,0.50
2022-10-19T14:39:35.417Z,0.57
2022-10-19T14:42:09.354Z,0.50
2022-10-19T14:44:40.000Z,0.20
2022-10-19T14:47:30.546Z,0.40
2022-10-19T14:49:57.520Z,0.40
2022-10-19T14:52:30.093Z,0.60
2022-10-19T14:54:57.394Z,0.40
2022-10-19T14:57:31.979Z,0.20
2022-10-19T15:00:03.597Z,0.43
2022-10-19T15:02:52.983Z,1.10
2022-10-19T15:05:23.819Z,0.33
2022-10-19T15:07:51.303Z,0.40
2022-10-19T15:10:23.283Z,0.40
2022-10-19T15:12:52.087Z,0.30
2022-10-19T15:15:24.975Z,0.43
2022-10-19T15:18:01.716Z,0.63
2022-10-19T15:20:30.350Z,0.50
2022-10-19T15:22:58.709Z,0.50
2022-10-19T15:25:36.376Z,1.50
2022-10-19T15:28:40.591Z,0.70
2022-10-19T15:31:24.096Z,0.87
2022-10-19T15:33:59.689Z,0.37
2022-10-19T15:36:27.736Z,0.50
2022-10-19T15:39:18.227Z,0.60
2022-10-19T15:41:52.164Z,0.50
2022-10-19T15:44:42.365Z,0.70
2022-10-19T15:47:14.730Z,0.50
2022-10-19T15:49:41.499Z,0.40
2022-10-19T15:52:16.113Z,0.73
2022-10-19T15:54:43.047Z,0.57
2022-10-19T15:57:24.649Z,0.70
2022-10-19T15:59:51.355Z,0.47
2022-10-19T16:02:18.208Z,0.57
2022-10-19T16:04:48.698Z,0.60
2022-10-19T16:07:20.027Z,0.50
2022-10-19T16:09:46.586Z,0.77
2022-10-19T16:12:13.093Z,0.70
2022-10-19T16:14:39.611Z,1.27
2022-10-19T16:17:06.120Z,0.70
2022-10-19T16:19:32.697Z,1.13
2022-10-19T16:21:59.234Z,0.80
2022-10-19T16:24:25.897Z,0.70
2022-10-19T16:26:52.372Z,1.13
2022-10-19T16:29:18.905Z,0.80
2022-10-19T16:31:45.380Z,0.97
2022-10-19T16:34:11.891Z,0.63
2022-10-19T16:36:38.447Z,0.60
2022-10-19T16:39:05.114Z,0.50
2022-10-19T16:41:31.802Z,0.87
2022-10-19T16:43:58.458Z,0.53
2022-10-19T16:46:25.238Z,0.87
2022-10-19T16:48:52.403Z,0.60
2022-10-19T16:51:29.018Z,0.37
2022-10-19T16:53:57.556Z,0.50
2022-10-19T16:56:25.762Z,0.77
2022-10-19T16:58:57.382Z,0.50
2022-10-19T17:01:24.067Z,0.70
2022-10-19T17:03:50.632Z,0.50
2022-10-19T17:06:18.365Z,1.27
2022-10-19T17:09:14.661Z,0.60
2022-10-19T17:11:34.584Z,0.70
2022-10-19T17:14:04.480Z,0.50
2022-10-19T17:16:33.112Z,0.63
2022-10-19T17:19:01.464Z,2.00
2022-10-19T17:21:30.436Z,1.63
2022-10-19T17:24:00.015Z,0.73
2022-10-19T17:26:28.486Z,0.80
2022-10-19T17:28:56.140Z,0.80
2022-10-19T17:31:23.541Z,0.60
2022-10-19T17:33:50.114Z,0.60
2022-10-19T17:36:20.109Z,0.57
2022-10-19T17:38:46.764Z,0.60
2022-10-19T17:41:16.354Z,0.93
2022-10-19T17:43:44.542Z,0.90
2022-10-19T17:46:13.335Z,0.67
2022-10-19T17:48:41.635Z,0.63
2022-10-19T17:51:12.783Z,0.60
2022-10-19T17:53:39.432Z,1.00
2022-10-19T17:56:07.556Z,1.13
2022-10-19T17:58:39.057Z,0.80
2022-10-19T18:01:07.852Z,0.93
2022-10-19T18:03:35.995Z,0.90
2022-10-19T18:06:11.460Z,1.23
2022-10-19T18:08:40.718Z,1.27
2022-10-19T18:11:12.116Z,1.40
2022-10-19T18:13:39.583Z,1.30
2022-10-19T18:16:20.734Z,1.20
2022-10-19T18:18:48.982Z,2.17
2022-10-19T18:21:18.096Z,1.60
2022-10-19T18:23:45.258Z,1.67
2022-10-19T18:26:15.657Z,1.93
2022-10-19T18:28:43.036Z,1.87
2022-10-19T18:31:15.405Z,2.13
2022-10-19T18:33:42.248Z,2.03
2022-10-19T18:36:10.817Z,2.63
2022-10-19T18:38:38.517Z,3.03
2022-10-19T18:41:08.130Z,2.07
2022-10-19T18:43:34.735Z,2.90
2022-10-19T18:46:01.517Z,3.03
2022-10-19T18:48:29.350Z,2.70
2022-10-19T18:50:57.115Z,3.83
2022-10-19T18:53:24.015Z,3.50
2022-10-19T18:56:02.220Z,3.40
2022-10-19T18:58:31.000Z,3.73
2022-10-19T19:01:08.277Z,4.57
2022-10-19T19:03:36.255Z,3.80
2022-10-19T19:06:05.865Z,3.57
2022-10-19T19:08:32.814Z,3.73
2022-10-19T19:11:12.957Z,3.93
2022-10-19T19:13:40.327Z,3.70
2022-10-19T19:16:08.327Z,3.90
2022-10-19T19:18:35.583Z,3.27
2022-10-19T19:21:03.749Z,3.93
2022-10-19T19:23:31.088Z,3.33
2022-10-19T19:25:57.582Z,3.70
2022-10-19T19:28:24.153Z,3.07
2022-10-19T19:30:50.652Z,3.23
2022-10-19T19:33:17.123Z,3.33
2022-10-19T19:35:44.928Z,3.20
2022-10-19T19:38:12.214Z,3.10
2022-10-19T19:40:44.219Z,2.77
2022-10-19T19:43:11.743Z,2.80
2022-10-19T19:45:38.894Z,4.43
2022-10-19T19:48:06.478Z,3.23
2022-10-19T19:50:33.997Z,3.00
2022-10-19T19:53:00.842Z,2.80
2022-10-19T19:55:27.925Z,3.70
2022-10-19T19:57:55.379Z,3.17
2022-10-19T20:00:23.258Z,3.50
2022-10-19T20:02:57.095Z,3.70
2022-10-19T20:05:24.464Z,3.30
2022-10-19T20:07:51.084Z,2.93
2022-10-19T20:10:18.144Z,3.47
2022-10-19T20:12:46.353Z,3.13
2022-10-19T20:15:15.396Z,3.50
2022-10-19T20:17:42.308Z,2.47
2022-10-19T20:20:09.944Z,3.13
2022-10-19T20:22:36.539Z,3.67
2022-10-19T20:25:04.131Z,3.37
2022-10-19T20:27:30.949Z,3.00
2022-10-19T20:29:59.966Z,3.80
2022-10-19T20:32:27.311Z,3.40
2022-10-19T20:34:54.173Z,4.00
2022-10-19T20:37:21.131Z,3.30
2022-10-19T20:39:48.741Z,3.03
2022-10-19T20:42:17.534Z,3.10
2022-10-19T20:44:45.146Z,2.60
2022-10-19T20:47:12.055Z,3.17
2022-10-19T20:49:38.684Z,3.70
2022-10-19T20:52:05.221Z,2.87
2022-10-19T20:54:31.890Z,3.07
2022-10-19T20:56:58.920Z,3.27
2022-10-19T20:59:30.381Z,3.10
2022-10-19T21:01:57.729Z,3.57
2022-10-19T21:04:25.569Z,3.33
2022-10-19T21:06:53.089Z,3.27
2022-10-19T21:09:22.386Z,2.60
2022-10-19T21:11:50.591Z,2.70
2022-10-19T21:14:28.450Z,3.57
2022-10-19T21:16:57.757Z,3.10
2022-10-19T21:19:26.103Z,2.97
2022-10-19T21:21:55.689Z,2.60
2022-10-19T21:24:24.846Z,3.10
2022-10-19T21:29:22.961Z,3.27
2022-10-19T21:31:52.156Z,3.13
2022-10-19T21:34:22.622Z,3.13
2022-10-19T21:36:49.797Z,2.40
2022-10-19T21:39:17.144Z,3.40
2022-10-19T21:41:44.131Z,3.23
2022-10-19T21:44:10.923Z,2.13
2022-10-19T21:46:37.513Z,2.93
2022-10-19T21:49:04.105Z,2.60
2022-10-19T21:51:33.622Z,2.67
2022-10-19T21:54:02.955Z,2.47
2022-10-19T21:56:29.666Z,3.37
2022-10-19T21:58:56.294Z,2.50
2022-10-19T22:01:26.608Z,3.10
2022-10-19T22:04:01.344Z,3.20
2022-10-19T22:06:29.933Z,3.17
2022-10-19T22:08:57.544Z,3.50
2022-10-19T22:11:25.066Z,3.30
2022-10-19T22:14:00.130Z,3.50
2022-10-19T22:16:27.976Z,2.40
2022-10-19T22:18:55.133Z,3.07
2022-10-19T22:21:25.407Z,2.80
2022-10-19T22:24:10.957Z,1.87
2022-10-19T22:26:40.783Z,2.40
2022-10-19T22:29:08.016Z,3.13
2022-10-19T22:31:36.025Z,2.90
2022-10-19T22:34:06.213Z,2.80
2022-10-19T22:36:32.654Z,2.83
2022-10-19T22:38:59.101Z,3.20
2022-10-19T22:41:25.675Z,2.97
2022-10-19T22:43:52.155Z,2.87
2022-10-19T22:46:18.868Z,4.03
2022-10-19T22:48:45.481Z,3.50
2022-10-19T22:51:12.043Z,3.63
2022-10-19T22:53:38.581Z,3.47
2022-10-19T22:56:05.803Z,3.00
2022-10-19T22:58:32.431Z,3.37
2022-10-19T23:01:19.377Z,3.07
2022-10-19T23:03:45.870Z,2.80
2022-10-19T23:06:14.177Z,3.40
2022-10-19T23:08:41.035Z,2.30
2022-10-19T23:11:07.592Z,2.70
2022-10-19T23:13:34.171Z,2.50
2022-10-19T23:16:00.770Z,3.13
2022-10-19T23:18:30.035Z,2.87
2022-10-19T23:20:59.514Z,3.60
2022-10-19T23:23:26.587Z,2.77
2022-10-19T23:26:08.598Z,2.87
2022-10-19T23:28:37.767Z,2.97
2022-10-19T23:31:06.719Z,3.27
2022-10-19T23:33:33.766Z,3.23
2022-10-19T23:36:12.885Z,2.80
2022-10-19T23:38:39.346Z,2.50
2022-10-19T23:41:06.081Z,2.37
2022-10-19T23:43:32.716Z,3.13
2022-10-19T23:45:59.750Z,3.17
2022-10-19T23:48:26.305Z,2.87
2022-10-19T23:51:07.947Z,2.90
2022-10-19T23:53:39.981Z,3.30
2022-10-19T23:56:12.119Z,2.90
2022-10-19T23:58:38.696Z,2.67
